Portada
METAR-TAF:

METAR-TAF

Aeroports :

Hat Yai, Tailàndia

latitud: 06-55N, longitud: 100-26E, altitud: 27 m

Observació

L'informe es va fer fa 43 minuts, a les 20:30 UTC
Vent calma
Temperatura 26°C
Humitat 89%
Pressió 1007 hPa
Visibilitat 10 km o més
Escasses núvols a una alçada de 2000 ft

METAR: VTSS 192030Z 00000KT 9999 FEW020 26/24 Q1007 NOSIG

Hora: 04:13 (21:13 UTC)

Pronòstic

L'informe es va fer fa 4 hores i 13 minuts, a les 17:00 UTC
Pronòstic vàlid del 19 a les 18 UTC al 20 a les 18 UTC
Vent kt del Nord
Visibilitat 10 km o més
Escasses núvols a una alçada de 2000 ft

TAF: VTSS 191700Z 1918/2018 00000KT 9999 FEW020

Observacions i pronòstics meteorològics de més de 4000 aeroports (METAR i TAF).

Les estacions disponibles són els punts grocs i vermells al mapa.

Posi el ratolí al punt desitjat per veure el nom de l'estació.

Feu clic per veure les observacions i els pronòstics meteorològics.

Per canviar el mapa: feu clic els botons verds amb una creu de color negre per apropar; al botó verd amb un guió per allunyar la imatge; o en les fletxes verdes per a mapes adjacents.


METAR-TAF: